Details From LEVC - Valencia
To GEML - Melilla
Flight Number -
Tags Standard
Created
Modified
Stats Distance 293 nm / 543 km
Max Altitude 0 ft / 0 m
Waypoints 8
Social Downloads 1
Likes 0
Share VATSIM

Download

Looking for another format? Having issues loading an existing format? Contact us
Advertisement - Login to hide

Notes

None

Route

+39.494_-000.494 LEVC NARGO RESTU SORBA AMR BERUM GEML

ID Type Via Altitude Latitude Longitude Leg Dist Tot Dist Heading (true) Name
O +39.494_-000.494 LATLON - 0 ft / 0 m 39.49433˚ -0.49479˚ - 0 nm - -
LEVC APT - 0 ft / 0 m 39.48900˚ -0.48078˚ 0 nm 0 nm 116° / 116° Valencia
NARGO FIX - 0 ft / 0 m 38.73831˚ -0.99867˚ 51 nm 51 nm 208° / 208° -
RESTU FIX - 0 ft / 0 m 37.90755˚ -1.55757˚ 56 nm 108 nm 208° / 208° -
SORBA FIX - 0 ft / 0 m 37.03570˚ -2.12885˚ 59 nm 167 nm 208° / 207° -
AMR VOR - 0 ft / 0 m 36.83317˚ -2.25942˚ 13 nm 180 nm 207° / 207° ALMERIA VOR-DME
BERUM FIX - 0 ft / 0 m 35.83333˚ -3.23583˚ 76 nm 257 nm 218° / 218° -
O GEML APT - 0 ft / 0 m 35.28037˚ -2.95671˚ 35 nm 293 nm 158° / 158° MELILLA

Altitude Profile

Advertisement - Login to hide

Weather


0- 5 10 15 20 25 30 35+ Temperature / ° C

Clouds and Precipitation
Forecast for 2018-05-22 18:00 UTC. Updated 5 hours ago

Ground ~20,000 ft ~40,000 ft Winds

LEVC

Details ICAO LEVC (VLC)
Name Valencia
Region Spain
Timezone Europe/Madrid (UTC+2.0)
Stats Elevation 225 ft / 69 m (AMSL)
Location 39.488236° -0.483892°
Runways 2
Magnetic Variation 0.241° E

METAR

LEVC 222130Z 31003KT 280V350 CAVOK 21/14 Q1016 NOSIG

Decode

TAF

TAF LEVC 221700Z 2218/2318 08010KT 9999 FEW030 TX27/2313Z TN14/2306Z PROB30 TEMPO 2218/2219 4000 SHRA BKN025 FEW030CB BECMG 2218/2221 VRB04KT BECMG 2309/2312 10010KT

Decode

Departure Runways

ID Width Length Bearing (true) Bearing (mag) Surface Threshold Offset Overrun Length
12 148 ft / 45 m 10,555 ft / 3,217 m 116.25° 116.01° Asphalt 0 ft / 0 m 646 ft / 197 m
22 154 ft / 47 m 3,828 ft / 1,167 m 217.99° 217.75° Asphalt 0 ft / 0 m 0 ft / 0 m
30 148 ft / 45 m 10,555 ft / 3,217 m 296.27° 296.03° Asphalt 1,001 ft / 305 m 932 ft / 284 m
4 154 ft / 47 m 3,828 ft / 1,167 m 37.98° 37.74° Asphalt 0 ft / 0 m 0 ft / 0 m

GEML

Details ICAO GEML (MLN)
Name MELILLA
Region Ceuta and Melilla
Timezone Africa/Casablanca (UTC+0.0)
Stats Elevation 156 ft / 48 m (AMSL)
Location 35.280374° -2.956708°
Runways 1
Magnetic Variation 0.407° W

METAR

GEML 222130Z AUTO 11004KT 080V150 9999 NCD 19/17 Q1016

Decode

TAF

TAF GEML 222000Z 2221/2321 07005KT CAVOK TX23/2312Z TN15/2305Z

Decode

Destination Runways

ID Width Length Bearing (true) Bearing (mag) Surface Threshold Offset Overrun Length
15 148 ft / 45 m 4,811 ft / 1,466 m 146.39° 146.80° Asphalt 755 ft / 230 m 0 ft / 0 m
33 148 ft / 45 m 4,811 ft / 1,466 m 326.40° 326.81° Asphalt 0 ft / 0 m 0 ft / 0 m